Lawton Fort Sill Regional Airport
KLAW : now visible

Airfield :











YOU CAN JOIN US ON...

 
LOGIN :

Register | Disclaimer

   EN    FR    IT 

 









Legend :    VFR   Marginal VFR   IFR   Intensive IFR   Very Intensive IFR
Visi :
Ceiling :
>= 8 km
>= 3000ft
5 to 8 km
1000 to 3000 ft
1500m to 5 km
500 to 1000 ft
800 to 1500m
200 to 500 ft
< 800m
< 200 ft
Symbols :   Thunderstorms  Fog  Heavy snow  Heavy precipitations  Wind > 20 kt







- Airport Elevation : 1110 ft


KLAW - Lawton Fort Sill Regional

CURRENT METAR :
  • 181053Z AUTO 17007KT 10SM CLR 26/21 A2993 RMK AO2 SLP120 T02560211

EXPIRED METARs :
  • 180953Z AUTO 17010KT 10SM CLR 26/21 A2992 RMK AO2 SLP116 T02610211
  • 180853Z AUTO 17011KT 10SM CLR 27/21 A2991 RMK AO2 SLP110 T02670211 56010

TAF KLAW
Valid from the 18 at 06:00 until the 19 at 06:00 UTC


180520Z 1806/1906 16011KT P6SM SKC
FM181400 19014G21KT P6SM FEW050
FM190000 16012KT P6SM SKC
KZFW FIR / North America



MET'MAP, your aeronautical weather chart ! - Copyright ORBIFLY December 2007 - Disclaimer

ORBIFLY MET'MAP TEAM :

Programming & Development : Alexandra Zaïnal
Concept & Development : Baudouin d'Aumeries
Co-Development & Prog : Marc-Olivier Méhu
Technical & hardware support : Manuel Goepfert

Contact : metmap@orbifly.com




SOURCES & CREDITS :

   NOAA       Earth
Advisory